createdAt,value
2023-04-24T00:00:10.701Z,20.14
2023-04-24T00:01:13.413Z,22.80
2023-04-24T00:02:15.571Z,20.77
2023-04-24T00:03:18.272Z,21.04
2023-04-24T00:04:20.505Z,19.48
2023-04-24T00:05:22.990Z,19.95
2023-04-24T00:06:26.501Z,20.31
2023-04-24T00:07:29.376Z,20.14
2023-04-24T00:08:31.255Z,22.46
2023-04-24T00:09:35.122Z,19.99
2023-04-24T00:10:37.142Z,20.06
2023-04-24T00:11:39.003Z,20.27
2023-04-24T00:12:40.867Z,20.59
2023-04-24T00:13:44.997Z,20.40
2023-04-24T00:14:47.023Z,22.28
2023-04-24T00:15:48.886Z,23.33
2023-04-24T00:16:50.988Z,20.45
2023-04-24T00:17:53.096Z,20.24
2023-04-24T00:18:55.318Z,18.43
2023-04-24T00:19:57.783Z,19.55
2023-04-24T00:20:59.959Z,20.69
2023-04-24T00:22:03.087Z,20.77
2023-04-24T00:23:04.974Z,19.74
2023-04-24T00:24:07.198Z,18.68
2023-04-24T00:25:09.191Z,21.58
2023-04-24T00:26:11.370Z,17.57
2023-04-24T00:27:13.430Z,21.49
2023-04-24T00:28:15.349Z,18.71
2023-04-24T00:29:17.190Z,20.59
2023-04-24T00:30:19.762Z,21.69
2023-04-24T00:31:21.732Z,19.05
2023-04-24T00:32:23.650Z,21.15
2023-04-24T00:33:25.790Z,22.39
2023-04-24T00:34:27.769Z,19.41
2023-04-24T00:35:29.644Z,18.45
2023-04-24T00:36:31.609Z,18.85
2023-04-24T00:37:33.547Z,16.81
2023-04-24T00:38:35.527Z,22.30
2023-04-24T00:39:37.383Z,15.72
2023-04-24T00:40:39.695Z,19.07
2023-04-24T00:41:42.340Z,19.09
2023-04-24T00:42:44.706Z,20.08
2023-04-24T00:43:46.588Z,25.73
2023-04-24T00:44:48.829Z,18.39
2023-04-24T00:45:50.853Z,20.92
2023-04-24T00:46:54.394Z,22.35
2023-04-24T00:47:57.112Z,22.12
2023-04-24T00:48:59.843Z,23.36
2023-04-24T00:50:06.936Z,22.85
2023-04-24T00:51:08.947Z,18.73
2023-04-24T00:52:10.815Z,18.71
2023-04-24T00:53:12.774Z,20.11
2023-04-24T00:54:15.112Z,23.50
2023-04-24T00:55:17.884Z,20.61
2023-04-24T00:56:20.056Z,22.47
2023-04-24T00:57:22.195Z,20.09
2023-04-24T00:58:24.757Z,19.59
2023-04-24T00:59:27.331Z,23.59
2023-04-24T01:00:29.393Z,22.93
2023-04-24T01:01:31.981Z,17.61
2023-04-24T01:02:34.203Z,18.76
2023-04-24T01:03:36.645Z,21.03
2023-04-24T01:04:39.894Z,18.97
2023-04-24T01:05:42.682Z,23.09
2023-04-24T01:06:46.168Z,21.21
2023-04-24T01:07:48.388Z,19.65
2023-04-24T01:08:50.447Z,19.51
2023-04-24T01:09:52.514Z,20.41
2023-04-24T01:10:57.190Z,20.75
2023-04-24T01:11:59.090Z,19.81
2023-04-24T01:13:01.055Z,18.77
2023-04-24T01:14:03.091Z,19.67
2023-04-24T01:15:06.000Z,22.09
2023-04-24T01:16:09.023Z,20.04
2023-04-24T01:17:11.291Z,20.31
2023-04-24T01:18:13.979Z,19.57
2023-04-24T01:19:18.483Z,19.64
2023-04-24T01:20:21.365Z,25.79
2023-04-24T01:21:25.998Z,20.39
2023-04-24T01:22:28.144Z,20.78
2023-04-24T01:23:30.236Z,21.07
2023-04-24T01:24:32.112Z,20.55
2023-04-24T01:25:34.877Z,20.53
2023-04-24T01:26:36.851Z,21.49
2023-04-24T01:27:38.849Z,18.71
2023-04-24T01:28:41.006Z,23.34
2023-04-24T01:29:43.402Z,19.81
2023-04-24T01:30:46.129Z,20.99
2023-04-24T01:31:48.360Z,23.38
2023-04-24T01:32:51.344Z,21.78
2023-04-24T01:33:55.040Z,21.60
2023-04-24T01:34:58.016Z,19.32
2023-04-24T01:36:00.194Z,21.37
2023-04-24T01:37:02.171Z,19.10
2023-04-24T01:38:04.810Z,21.33
2023-04-24T01:39:06.914Z,22.21
2023-04-24T01:40:10.485Z,24.23
2023-04-24T01:41:13.724Z,20.64
2023-04-24T01:42:17.133Z,22.24
2023-04-24T01:43:19.628Z,20.08
2023-04-24T01:44:22.084Z,23.51
2023-04-24T01:45:24.057Z,22.78
2023-04-24T01:46:26.738Z,22.05
2023-04-24T01:47:30.216Z,21.69
2023-04-24T01:48:32.973Z,22.09
2023-04-24T01:49:35.611Z,22.13
2023-04-24T01:50:38.119Z,25.17
2023-04-24T01:51:42.592Z,21.00
2023-04-24T01:52:44.927Z,21.29
2023-04-24T01:53:46.808Z,23.69
2023-04-24T01:54:49.040Z,27.65
2023-04-24T01:55:52.072Z,22.35
2023-04-24T01:56:54.152Z,23.76
2023-04-24T01:57:56.848Z,20.97
2023-04-24T01:59:01.974Z,22.73
2023-04-24T02:00:05.661Z,25.42
2023-04-24T02:01:07.674Z,21.58
2023-04-24T02:02:10.120Z,24.95
2023-04-24T02:03:12.312Z,23.71
2023-04-24T02:04:17.000Z,23.35
2023-04-24T02:05:19.624Z,22.31
2023-04-24T02:06:21.850Z,22.83
2023-04-24T02:07:23.852Z,21.98
2023-04-24T02:08:25.828Z,23.49
2023-04-24T02:09:27.682Z,23.22
2023-04-24T02:10:29.975Z,23.90
2023-04-24T02:11:31.997Z,23.02
2023-04-24T02:12:34.102Z,23.86
2023-04-24T02:13:36.241Z,22.97
2023-04-24T02:14:38.185Z,24.05
2023-04-24T02:15:40.079Z,23.17
2023-04-24T02:16:42.647Z,22.40
2023-04-24T02:17:44.785Z,22.74
2023-04-24T02:18:46.952Z,24.10
2023-04-24T02:19:50.036Z,22.91
2023-04-24T02:20:52.216Z,25.05
2023-04-24T02:21:54.163Z,24.15
2023-04-24T02:22:56.153Z,25.47
2023-04-24T02:23:58.141Z,22.58
2023-04-24T02:25:00.202Z,22.66
2023-04-24T02:26:02.538Z,23.83
2023-04-24T02:27:04.851Z,22.67
2023-04-24T02:28:06.870Z,25.09
2023-04-24T02:29:09.020Z,22.82
2023-04-24T02:30:11.392Z,20.52
2023-04-24T02:31:13.367Z,24.04
2023-04-24T02:32:15.297Z,25.42
2023-04-24T02:33:17.230Z,20.67
2023-04-24T02:34:19.081Z,26.02
2023-04-24T02:35:20.951Z,24.81
2023-04-24T02:36:23.085Z,22.84
2023-04-24T02:37:24.942Z,24.26
2023-04-24T02:38:26.903Z,25.63
2023-04-24T02:39:28.911Z,22.43
2023-04-24T02:40:31.055Z,23.11
2023-04-24T02:41:33.002Z,24.72
2023-04-24T02:42:34.879Z,23.43
2023-04-24T02:43:36.737Z,19.34
2023-04-24T02:44:38.602Z,21.10
2023-04-24T02:45:40.721Z,21.92
2023-04-24T02:46:43.040Z,23.39
2023-04-24T02:47:45.163Z,26.01
2023-04-24T02:48:47.211Z,19.53
2023-04-24T02:49:49.062Z,23.87
2023-04-24T02:50:51.454Z,25.56
2023-04-24T02:51:53.308Z,24.67
2023-04-24T02:52:55.173Z,22.65
2023-04-24T02:53:57.275Z,21.41
2023-04-24T02:54:59.154Z,21.61
2023-04-24T02:56:01.185Z,23.60
2023-04-24T02:57:03.257Z,22.39
2023-04-24T02:58:05.242Z,25.63
2023-04-24T02:59:07.223Z,21.10
2023-04-24T03:00:10.629Z,21.45
2023-04-24T03:01:14.767Z,24.26
2023-04-24T03:02:16.858Z,23.98
2023-04-24T03:03:18.980Z,20.04
2023-04-24T03:04:21.069Z,23.10
2023-04-24T03:05:23.161Z,22.67
2023-04-24T03:06:25.434Z,25.00
2023-04-24T03:07:27.306Z,21.32
2023-04-24T03:08:29.303Z,20.99
2023-04-24T03:09:31.293Z,21.05
2023-04-24T03:10:33.349Z,22.26
2023-04-24T03:11:36.883Z,22.25
2023-04-24T03:12:39.077Z,19.46
2023-04-24T03:13:41.110Z,21.65
2023-04-24T03:14:43.277Z,21.47
2023-04-24T03:15:45.359Z,21.33
2023-04-24T03:16:47.629Z,28.53
2023-04-24T03:17:50.698Z,20.78
2023-04-24T03:18:52.693Z,22.54
2023-04-24T03:19:54.564Z,25.29
2023-04-24T03:20:57.681Z,20.49
2023-04-24T03:21:59.601Z,24.03
2023-04-24T03:23:01.444Z,21.43
2023-04-24T03:24:03.498Z,21.18
2023-04-24T03:25:06.372Z,21.61
2023-04-24T03:26:08.557Z,21.35
2023-04-24T03:27:10.416Z,22.09
2023-04-24T03:28:12.543Z,22.65
2023-04-24T03:29:14.503Z,26.09
2023-04-24T03:30:16.966Z,24.08
2023-04-24T03:31:19.076Z,22.93
2023-04-24T03:32:24.419Z,18.26
2023-04-24T03:33:26.546Z,22.37
2023-04-24T03:34:28.658Z,23.68
2023-04-24T03:35:30.549Z,22.85
2023-04-24T03:36:32.500Z,25.27
2023-04-24T03:37:34.489Z,23.33
2023-04-24T03:38:36.353Z,25.37
2023-04-24T03:39:38.212Z,23.07
2023-04-24T03:40:40.467Z,25.27
2023-04-24T03:41:42.316Z,27.45
2023-04-24T03:42:44.185Z,23.03
2023-04-24T03:43:46.070Z,24.79
2023-04-24T03:44:47.954Z,21.93
2023-04-24T03:45:49.827Z,21.57
2023-04-24T03:46:51.957Z,25.21
2023-04-24T03:47:54.795Z,28.05
2023-04-24T03:48:57.947Z,25.69
2023-04-24T03:50:00.218Z,31.39
2023-04-24T03:51:02.194Z,36.27
2023-04-24T03:52:04.105Z,32.43
2023-04-24T03:53:06.106Z,30.64
2023-04-24T03:54:08.104Z,29.28
2023-04-24T03:55:10.078Z,27.27
2023-04-24T03:56:12.254Z,24.90
2023-04-24T03:57:14.269Z,24.09
2023-04-24T03:58:16.495Z,28.63
2023-04-24T03:59:18.697Z,26.95
2023-04-24T04:00:21.050Z,28.96
2023-04-24T04:01:23.494Z,26.03
2023-04-24T04:02:25.583Z,25.41
2023-04-24T04:03:27.871Z,22.78
2023-04-24T04:04:30.175Z,26.17
2023-04-24T04:05:32.375Z,22.84
2023-04-24T04:06:34.657Z,22.85
2023-04-24T04:07:36.623Z,24.87
2023-04-24T04:08:38.520Z,22.97
2023-04-24T04:09:40.617Z,22.43
2023-04-24T04:10:43.648Z,24.21
2023-04-24T04:11:45.695Z,23.19
2023-04-24T04:12:47.544Z,21.95
2023-04-24T04:13:49.610Z,23.72
2023-04-24T04:14:51.462Z,22.61
2023-04-24T04:15:53.408Z,24.77
2023-04-24T04:16:55.519Z,24.44
2023-04-24T04:17:57.610Z,19.80
2023-04-24T04:18:59.543Z,23.28
2023-04-24T04:20:01.405Z,27.02
2023-04-24T04:21:03.555Z,27.76
2023-04-24T04:22:05.428Z,21.34
2023-04-24T04:23:07.459Z,28.15
2023-04-24T04:24:09.433Z,24.13
2023-04-24T04:25:11.397Z,22.21
2023-04-24T04:26:14.019Z,23.65
2023-04-24T04:27:16.011Z,24.03
2023-04-24T04:28:18.002Z,23.19
2023-04-24T04:29:19.881Z,25.35
2023-04-24T04:30:22.086Z,26.15
2023-04-24T04:31:24.169Z,23.43
2023-04-24T04:32:26.289Z,23.82
2023-04-24T04:33:28.487Z,25.36
2023-04-24T04:34:30.372Z,22.69
2023-04-24T04:35:32.305Z,22.19
2023-04-24T04:36:34.372Z,24.25
2023-04-24T04:37:36.318Z,25.95
2023-04-24T04:38:38.248Z,28.95
2023-04-24T04:39:40.345Z,26.15
2023-04-24T04:40:43.497Z,24.93
2023-04-24T04:41:45.366Z,24.05
2023-04-24T04:42:47.303Z,26.02
2023-04-24T04:43:49.163Z,30.06
2023-04-24T04:44:51.567Z,40.84
2023-04-24T04:45:53.613Z,41.45
2023-04-24T04:46:55.688Z,34.16
2023-04-24T04:47:57.549Z,34.54
2023-04-24T04:49:00.800Z,32.59
2023-04-24T04:50:03.545Z,33.09
2023-04-24T04:51:05.550Z,30.15
2023-04-24T04:52:07.667Z,36.04
2023-04-24T04:53:09.528Z,35.98
2023-04-24T04:54:11.467Z,59.29
2023-04-24T04:55:13.715Z,45.97
2023-04-24T04:56:16.713Z,37.60
2023-04-24T04:57:18.652Z,29.95
2023-04-24T04:58:20.603Z,28.13
2023-04-24T04:59:22.553Z,35.85
2023-04-24T05:00:25.016Z,27.10
2023-04-24T05:01:26.978Z,29.54
2023-04-24T05:02:29.003Z,25.00
2023-04-24T05:03:31.182Z,26.16
2023-04-24T05:04:33.412Z,25.45
2023-04-24T05:05:35.506Z,26.23
2023-04-24T05:06:37.680Z,29.95
2023-04-24T05:07:39.614Z,25.65
2023-04-24T05:08:41.462Z,26.69
2023-04-24T05:09:43.436Z,28.91
2023-04-24T05:10:45.813Z,22.17
2023-04-24T05:11:48.052Z,23.73
2023-04-24T05:12:49.914Z,27.87
2023-04-24T05:13:51.869Z,23.87
2023-04-24T05:14:53.713Z,28.91
2023-04-24T05:15:56.181Z,23.25
2023-04-24T05:16:58.357Z,69.17
2023-04-24T05:18:00.423Z,53.69
2023-04-24T05:19:02.380Z,40.14
2023-04-24T05:20:06.137Z,27.23
2023-04-24T05:21:08.273Z,24.34
2023-04-24T05:22:10.215Z,24.77
2023-04-24T05:23:12.075Z,24.41
2023-04-24T05:24:13.914Z,22.33
2023-04-24T05:25:16.068Z,20.11
2023-04-24T05:26:18.172Z,21.64
2023-04-24T05:27:20.729Z,23.82
2023-04-24T05:28:24.861Z,20.53
2023-04-24T05:29:26.856Z,20.05
2023-04-24T05:30:29.408Z,20.06
2023-04-24T05:31:31.399Z,17.99
2023-04-24T05:32:33.373Z,16.36
2023-04-24T05:33:35.409Z,18.22
2023-04-24T05:34:37.484Z,16.25
2023-04-24T05:35:41.180Z,15.25
2023-04-24T05:36:43.311Z,16.28
2023-04-24T05:37:45.201Z,15.07
2023-04-24T05:38:47.180Z,14.35
2023-04-24T05:39:49.162Z,16.20
2023-04-24T05:40:51.116Z,13.49
2023-04-24T05:41:52.974Z,14.67
2023-04-24T05:42:55.963Z,13.02
2023-04-24T05:43:57.887Z,12.58
2023-04-24T05:44:59.854Z,13.44
2023-04-24T05:46:01.988Z,14.12
2023-04-24T05:47:04.177Z,9.88
2023-04-24T05:48:06.475Z,9.91
2023-04-24T05:49:09.613Z,8.66
2023-04-24T05:50:12.303Z,7.11
2023-04-24T05:51:14.262Z,10.27
2023-04-24T05:52:16.206Z,7.51
2023-04-24T05:53:21.008Z,5.76
2023-04-24T05:54:22.903Z,6.26
2023-04-24T05:55:26.020Z,5.68
2023-04-24T05:56:28.117Z,6.66
2023-04-24T05:57:30.084Z,8.03
2023-04-24T05:58:31.971Z,5.90
2023-04-24T05:59:36.511Z,6.68
2023-04-24T06:00:38.983Z,9.49
2023-04-24T06:01:40.992Z,6.42
2023-04-24T06:02:43.113Z,7.46
2023-04-24T06:03:45.216Z,7.08
2023-04-24T06:04:47.398Z,6.49
2023-04-24T06:05:51.128Z,8.67
2023-04-24T06:06:53.233Z,6.61
2023-04-24T06:07:55.106Z,10.23
2023-04-24T06:08:57.039Z,8.14
2023-04-24T06:09:58.996Z,6.35
2023-04-24T06:11:03.272Z,7.48
2023-04-24T06:12:05.307Z,7.69
2023-04-24T06:13:07.222Z,5.81
2023-04-24T06:14:09.174Z,5.49
2023-04-24T06:15:11.510Z,6.36
2023-04-24T06:16:13.829Z,5.45
2023-04-24T06:17:16.279Z,5.65
2023-04-24T06:18:18.194Z,7.48
2023-04-24T06:19:20.152Z,5.91
2023-04-24T06:20:22.596Z,7.30
2023-04-24T06:21:24.492Z,6.87
2023-04-24T06:22:26.447Z,6.13
2023-04-24T06:23:28.306Z,6.76
2023-04-24T06:24:30.400Z,7.49
2023-04-24T06:25:32.721Z,6.17
2023-04-24T06:26:34.878Z,6.00
2023-04-24T06:27:36.749Z,6.83
2023-04-24T06:28:39.558Z,8.50
2023-04-24T06:29:41.912Z,6.53
2023-04-24T06:30:44.819Z,6.58
2023-04-24T06:31:46.811Z,5.51
2023-04-24T06:32:48.895Z,8.02
2023-04-24T06:33:50.909Z,5.18
2023-04-24T06:34:52.862Z,6.49
2023-04-24T06:35:54.739Z,4.30
2023-04-24T06:36:57.199Z,4.86
2023-04-24T06:37:59.198Z,3.39
2023-04-24T06:39:01.388Z,4.01
2023-04-24T06:40:06.006Z,4.31
2023-04-24T06:41:08.284Z,4.77
2023-04-24T06:42:10.177Z,5.26
2023-04-24T06:43:12.864Z,3.53
2023-04-24T06:44:14.832Z,3.66
2023-04-24T06:45:16.836Z,4.53
2023-04-24T06:46:20.431Z,2.72
2023-04-24T06:47:22.918Z,2.87
2023-04-24T06:48:26.209Z,3.40
2023-04-24T06:49:28.080Z,2.57
2023-04-24T06:50:30.281Z,2.49
2023-04-24T06:51:32.221Z,3.29
2023-04-24T06:52:34.083Z,3.74
2023-04-24T06:53:35.931Z,2.58
2023-04-24T06:54:37.812Z,2.69
2023-04-24T06:55:40.375Z,2.82
2023-04-24T06:56:42.573Z,2.99
2023-04-24T06:57:44.706Z,4.18
2023-04-24T06:58:46.857Z,6.65
2023-04-24T06:59:48.825Z,3.15
2023-04-24T07:00:50.893Z,2.93
2023-04-24T07:01:55.188Z,3.33
2023-04-24T07:02:56.681Z,4.15
2023-04-24T07:03:58.743Z,3.53
2023-04-24T07:05:00.734Z,3.76
2023-04-24T07:06:03.273Z,2.59
2023-04-24T07:07:05.165Z,3.49
2023-04-24T07:08:07.037Z,4.55
2023-04-24T07:09:08.966Z,6.01
2023-04-24T07:10:11.468Z,2.70
2023-04-24T07:11:13.435Z,3.13
2023-04-24T07:12:15.305Z,3.71
2023-04-24T07:13:17.335Z,3.32
2023-04-24T07:14:20.049Z,3.81
2023-04-24T07:15:22.348Z,2.72
2023-04-24T07:16:24.675Z,2.56
2023-04-24T07:17:26.623Z,2.61
2023-04-24T07:18:28.530Z,3.97
2023-04-24T07:19:30.393Z,3.67
2023-04-24T07:20:32.651Z,2.64
2023-04-24T07:21:34.818Z,3.22
2023-04-24T07:22:38.734Z,4.35
2023-04-24T07:23:40.647Z,3.18
2023-04-24T07:24:45.022Z,2.56
2023-04-24T07:25:46.929Z,2.15
2023-04-24T07:26:49.009Z,3.43
2023-04-24T07:27:51.050Z,1.87
2023-04-24T07:28:53.104Z,2.34
2023-04-24T07:29:55.057Z,2.15
2023-04-24T07:30:57.927Z,1.69
2023-04-24T07:32:00.995Z,2.32
2023-04-24T07:33:03.688Z,1.68
2023-04-24T07:34:05.629Z,4.25
2023-04-24T07:35:08.628Z,2.02
2023-04-24T07:36:10.784Z,2.87
2023-04-24T07:37:12.862Z,2.11
2023-04-24T07:38:14.998Z,2.17
2023-04-24T07:39:16.895Z,4.41
2023-04-24T07:40:20.508Z,3.08
2023-04-24T07:41:24.954Z,2.30
2023-04-24T07:42:26.816Z,1.52
2023-04-24T07:43:29.468Z,2.77
2023-04-24T07:44:31.453Z,3.98
2023-04-24T07:45:33.331Z,3.15
2023-04-24T07:46:35.470Z,2.17
2023-04-24T07:47:37.766Z,1.67
2023-04-24T07:48:39.761Z,1.68
2023-04-24T07:49:42.560Z,2.50
2023-04-24T07:50:45.256Z,2.62
2023-04-24T07:51:47.269Z,3.43
2023-04-24T07:52:49.340Z,2.68
2023-04-24T07:53:51.298Z,4.17
2023-04-24T07:54:53.171Z,2.74
2023-04-24T07:55:56.867Z,4.87
2023-04-24T07:56:59.127Z,2.75
2023-04-24T07:58:01.132Z,4.28
2023-04-24T07:59:03.063Z,5.23
2023-04-24T08:00:06.730Z,2.14
2023-04-24T08:01:08.613Z,2.09
2023-04-24T08:02:10.984Z,2.69
2023-04-24T08:03:13.530Z,2.51
2023-04-24T08:04:15.870Z,2.29
2023-04-24T08:05:18.234Z,2.61
2023-04-24T08:06:20.361Z,3.43
2023-04-24T08:07:24.237Z,3.57
2023-04-24T08:08:28.281Z,3.06
2023-04-24T08:09:30.319Z,4.52
2023-04-24T08:10:32.516Z,4.24
2023-04-24T08:11:34.504Z,2.39
2023-04-24T08:12:37.387Z,3.37
2023-04-24T08:13:39.388Z,2.80
2023-04-24T08:14:41.798Z,2.93
2023-04-24T08:15:43.970Z,2.63
2023-04-24T08:16:46.876Z,3.59
2023-04-24T08:17:49.016Z,2.23
2023-04-24T08:18:51.244Z,3.23
2023-04-24T08:19:53.152Z,1.99
2023-04-24T08:20:55.719Z,2.27
2023-04-24T08:21:57.608Z,4.42
2023-04-24T08:22:59.614Z,2.07
2023-04-24T08:24:01.602Z,2.59
2023-04-24T08:25:04.401Z,2.06
2023-04-24T08:26:06.588Z,2.46
2023-04-24T08:27:09.170Z,2.80
2023-04-24T08:28:11.202Z,2.27
2023-04-24T08:29:13.282Z,2.92
2023-04-24T08:30:15.606Z,3.33
2023-04-24T08:31:17.504Z,3.68
2023-04-24T08:32:19.791Z,3.26
2023-04-24T08:33:24.342Z,2.98
2023-04-24T08:34:26.337Z,2.85
2023-04-24T08:35:28.207Z,10.33
2023-04-24T08:36:40.047Z,4.10
2023-04-24T08:37:34.380Z,2.85
2023-04-24T08:38:36.529Z,4.28
2023-04-24T08:39:38.629Z,2.34
2023-04-24T08:40:41.596Z,2.98
2023-04-24T08:41:44.227Z,3.36
2023-04-24T08:42:46.354Z,3.88
2023-04-24T08:43:49.212Z,6.93
2023-04-24T08:44:51.437Z,3.02
2023-04-24T08:45:57.224Z,2.41
2023-04-24T08:47:00.820Z,2.58
2023-04-24T08:48:04.896Z,3.61
2023-04-24T08:49:07.035Z,3.96
2023-04-24T08:50:10.107Z,2.00
2023-04-24T08:51:12.088Z,3.01
2023-04-24T08:52:13.974Z,2.00
2023-04-24T08:53:18.032Z,3.68
2023-04-24T08:54:21.520Z,1.75
2023-04-24T08:55:25.109Z,2.27
2023-04-24T08:56:28.955Z,3.40
2023-04-24T08:57:32.700Z,2.56
2023-04-24T08:58:36.342Z,4.10
2023-04-24T08:59:39.003Z,3.15
2023-04-24T09:00:41.799Z,2.81
2023-04-24T09:01:45.715Z,2.59
2023-04-24T09:02:50.485Z,2.15
2023-04-24T09:03:55.231Z,2.70
2023-04-24T09:04:58.216Z,6.26
2023-04-24T09:06:01.666Z,3.84
2023-04-24T09:07:06.328Z,3.34
2023-04-24T09:08:08.681Z,2.32
2023-04-24T09:09:11.479Z,2.93
2023-04-24T09:10:14.138Z,2.90
2023-04-24T09:11:17.253Z,5.01
2023-04-24T09:12:19.544Z,3.08
2023-04-24T09:13:21.708Z,2.91
2023-04-24T09:14:24.362Z,4.61
2023-04-24T09:15:26.617Z,2.15
2023-04-24T09:16:29.240Z,5.38
2023-04-24T09:17:32.591Z,2.12
2023-04-24T09:18:34.531Z,1.86
2023-04-24T09:19:39.095Z,3.29
2023-04-24T09:21:02.912Z,2.33
2023-04-24T09:22:06.205Z,4.98
2023-04-24T09:23:08.117Z,3.34
2023-04-24T09:25:45.757Z,5.52
2023-04-24T09:26:49.315Z,1.46
2023-04-24T09:27:54.044Z,2.82
2023-04-24T09:28:55.916Z,3.12
2023-04-24T09:29:58.791Z,3.27
2023-04-24T09:31:13.803Z,2.61
2023-04-24T09:32:20.132Z,2.32
2023-04-24T09:33:22.105Z,11.67
2023-04-24T09:34:26.715Z,1.65
2023-04-24T09:35:28.684Z,1.85
2023-04-24T09:36:40.303Z,2.33
2023-04-24T09:37:44.890Z,2.83
2023-04-24T09:38:46.880Z,1.90
2023-04-24T09:39:52.684Z,2.31
2023-04-24T09:40:54.892Z,1.78
2023-04-24T09:41:57.729Z,1.68
2023-04-24T09:42:59.666Z,2.89
2023-04-24T09:44:19.602Z,2.41
2023-04-24T09:45:21.765Z,2.29
2023-04-24T09:46:31.731Z,4.85
2023-04-24T09:47:39.362Z,3.31
2023-04-24T09:48:41.452Z,3.13
2023-04-24T09:49:43.636Z,4.04
2023-04-24T09:50:50.619Z,4.73
2023-04-24T09:51:54.728Z,4.38
2023-04-24T09:53:06.047Z,8.54
2023-04-24T09:54:15.077Z,6.06
2023-04-24T09:55:20.079Z,3.07
2023-04-24T09:56:25.661Z,3.28
2023-04-24T09:57:27.737Z,4.14
2023-04-24T09:58:29.906Z,7.44
2023-04-24T09:59:31.802Z,3.85
2023-04-24T10:00:34.245Z,2.90
2023-04-24T10:01:36.463Z,4.50
2023-04-24T10:02:38.789Z,3.15
2023-04-24T10:03:42.555Z,3.14
2023-04-24T10:04:55.869Z,2.34
2023-04-24T10:06:02.955Z,3.34
2023-04-24T10:07:05.578Z,3.69
2023-04-24T10:08:12.491Z,3.13
2023-04-24T10:09:15.512Z,3.03
2023-04-24T10:10:17.937Z,2.73
2023-04-24T10:11:19.992Z,2.74
2023-04-24T10:12:23.278Z,2.16
2023-04-24T10:13:25.874Z,4.28
2023-04-24T10:14:27.832Z,2.64
2023-04-24T10:15:30.872Z,2.79
2023-04-24T10:16:33.275Z,3.41
2023-04-24T10:17:36.194Z,2.29
2023-04-24T10:18:40.183Z,3.31
2023-04-24T10:19:43.634Z,3.00
2023-04-24T10:20:46.353Z,4.96
2023-04-24T10:21:48.551Z,2.94
2023-04-24T10:22:52.817Z,4.49
2023-04-24T10:23:55.462Z,2.52
2023-04-24T10:24:58.814Z,3.37
2023-04-24T10:26:00.788Z,3.04
2023-04-24T10:27:03.848Z,2.11
2023-04-24T10:28:06.690Z,4.59
2023-04-24T10:29:11.069Z,4.72
2023-04-24T10:30:14.319Z,2.53
2023-04-24T10:31:18.922Z,3.13
2023-04-24T10:32:20.912Z,2.02
2023-04-24T10:33:24.281Z,2.06
2023-04-24T10:34:26.448Z,2.92
2023-04-24T10:35:31.305Z,2.69
2023-04-24T10:36:35.366Z,2.04
2023-04-24T10:37:40.343Z,2.19
2023-04-24T10:38:45.980Z,1.73
2023-04-24T10:39:49.141Z,2.47
2023-04-24T10:40:51.117Z,2.14
2023-04-24T10:41:54.396Z,1.91
2023-04-24T10:42:58.716Z,1.81
2023-04-24T10:44:09.478Z,4.89
2023-04-24T10:45:22.261Z,2.19
2023-04-24T10:46:28.158Z,2.01
2023-04-24T10:47:30.495Z,3.27
2023-04-24T10:48:34.558Z,1.88
2023-04-24T10:49:36.549Z,2.96
2023-04-24T10:50:47.733Z,2.70
2023-04-24T10:52:52.852Z,3.66
2023-04-24T10:53:57.962Z,2.07
2023-04-24T10:55:01.970Z,3.57
2023-04-24T10:56:09.054Z,3.41
2023-04-24T10:57:28.062Z,2.57
2023-04-24T10:58:42.343Z,5.76
2023-04-24T10:59:45.463Z,2.37
2023-04-24T11:01:01.225Z,3.87
2023-04-24T11:02:03.331Z,2.57
2023-04-24T11:03:26.761Z,2.95
2023-04-24T11:05:58.983Z,7.02
2023-04-24T11:07:02.922Z,8.00
2023-04-24T11:08:13.508Z,4.16
2023-04-24T11:09:15.965Z,3.13
2023-04-24T11:10:27.648Z,2.59
2023-04-24T11:11:30.659Z,5.78
2023-04-24T11:12:37.864Z,2.25
2023-04-24T11:13:58.602Z,2.61
2023-04-24T11:15:02.180Z,2.73
2023-04-24T11:16:16.968Z,3.08
2023-04-24T11:17:37.398Z,1.96
2023-04-24T11:18:43.273Z,3.94
2023-04-24T11:19:48.927Z,3.71
2023-04-24T11:20:52.933Z,2.11
2023-04-24T11:21:58.465Z,2.65
2023-04-24T11:23:04.197Z,3.67
2023-04-24T11:25:43.750Z,2.89
2023-04-24T11:26:45.718Z,1.35
2023-04-24T11:27:47.771Z,1.64
2023-04-24T11:28:51.135Z,2.27
2023-04-24T11:29:59.993Z,3.62
2023-04-24T11:31:22.897Z,3.17
2023-04-24T11:32:42.124Z,4.34
2023-04-24T11:33:44.558Z,3.59
2023-04-24T11:34:49.333Z,2.59
2023-04-24T11:35:51.947Z,2.47
2023-04-24T11:36:54.066Z,1.89
2023-04-24T11:39:00.822Z,3.05
2023-04-24T11:40:04.684Z,2.55
2023-04-24T11:41:06.968Z,2.56
2023-04-24T11:42:15.345Z,3.23
2023-04-24T11:43:20.084Z,1.69
2023-04-24T11:44:24.769Z,1.95
2023-04-24T11:45:29.180Z,2.27
2023-04-24T11:46:32.670Z,4.42
2023-04-24T11:47:34.860Z,1.92
2023-04-24T11:48:37.017Z,1.93
2023-04-24T11:49:39.010Z,1.96
2023-04-24T11:50:45.048Z,3.65
2023-04-24T11:51:53.020Z,1.58
2023-04-24T11:52:50.911Z,1.93
2023-04-24T11:54:03.518Z,3.07
2023-04-24T11:55:00.518Z,2.26
2023-04-24T11:56:04.414Z,3.34
2023-04-24T11:57:06.527Z,3.33
2023-04-24T11:58:08.408Z,3.56
2023-04-24T11:59:10.449Z,3.04
2023-04-24T12:00:18.144Z,2.11
2023-04-24T12:01:20.496Z,1.80
2023-04-24T12:02:25.290Z,2.08
2023-04-24T12:03:27.881Z,2.86
2023-04-24T12:04:35.587Z,2.51
2023-04-24T12:05:39.052Z,2.01
2023-04-24T12:07:02.141Z,3.37
2023-04-24T12:08:04.447Z,4.19
2023-04-24T12:09:17.868Z,2.62
2023-04-24T12:10:11.182Z,5.85
2023-04-24T12:11:15.918Z,2.53
2023-04-24T12:12:19.135Z,1.96
2023-04-24T12:13:21.869Z,4.17
2023-04-24T12:14:24.534Z,2.73
2023-04-24T12:15:27.654Z,4.53
2023-04-24T12:16:29.883Z,2.90
2023-04-24T12:17:33.892Z,2.79
2023-04-24T12:18:44.301Z,3.81
2023-04-24T12:19:47.912Z,2.07
2023-04-24T12:20:50.630Z,3.25
2023-04-24T12:22:04.453Z,3.55
2023-04-24T12:23:06.368Z,2.85
2023-04-24T12:24:08.356Z,2.23
2023-04-24T12:25:11.267Z,2.02
2023-04-24T12:27:31.446Z,4.30
2023-04-24T12:28:38.243Z,2.65
2023-04-24T12:29:58.104Z,2.90
2023-04-24T12:31:01.603Z,3.56
2023-04-24T12:32:03.757Z,2.94
2023-04-24T12:33:05.845Z,5.20
2023-04-24T12:34:21.738Z,3.45
2023-04-24T12:35:25.128Z,2.51
2023-04-24T12:36:27.241Z,3.19
2023-04-24T12:37:32.871Z,2.14
2023-04-24T12:38:34.821Z,3.58
2023-04-24T12:39:36.687Z,3.24
2023-04-24T12:40:39.456Z,3.53
2023-04-24T12:41:50.813Z,5.37
2023-04-24T12:42:52.721Z,6.11
2023-04-24T12:43:54.734Z,5.27
2023-04-24T12:44:59.699Z,5.90
2023-04-24T12:46:02.286Z,3.95
2023-04-24T12:47:04.312Z,6.11
2023-04-24T12:48:06.336Z,9.90
2023-04-24T12:49:08.246Z,3.59
2023-04-24T12:50:12.539Z,2.29
2023-04-24T12:51:14.529Z,19.78
2023-04-24T12:52:16.532Z,4.11
2023-04-24T12:53:18.383Z,3.65
2023-04-24T12:54:20.258Z,1.59
2023-04-24T12:55:22.605Z,5.02
2023-04-24T12:56:24.884Z,3.98
2023-04-24T12:57:29.885Z,3.99
2023-04-24T12:58:31.893Z,3.06
2023-04-24T12:59:33.780Z,2.35
2023-04-24T13:00:36.348Z,5.23
2023-04-24T13:01:38.515Z,2.57
2023-04-24T13:02:40.619Z,2.85
2023-04-24T13:03:43.053Z,2.29
2023-04-24T13:04:49.299Z,2.59
2023-04-24T13:05:51.440Z,1.98
2023-04-24T13:06:54.230Z,3.53
2023-04-24T13:07:57.621Z,1.82
2023-04-24T13:09:00.425Z,3.36
2023-04-24T13:10:02.792Z,1.67
2023-04-24T13:11:04.882Z,2.06
2023-04-24T13:12:08.002Z,2.34
2023-04-24T13:13:09.954Z,5.56
2023-04-24T13:14:11.795Z,4.81
2023-04-24T13:15:13.751Z,4.11
2023-04-24T13:16:15.862Z,2.46
2023-04-24T13:17:17.892Z,2.15
2023-04-24T13:18:19.974Z,2.15
2023-04-24T13:19:22.125Z,4.05
2023-04-24T13:20:25.482Z,2.63
2023-04-24T13:21:27.503Z,3.13
2023-04-24T13:22:29.557Z,2.80
2023-04-24T13:23:31.487Z,4.83
2023-04-24T13:24:33.657Z,1.69
2023-04-24T13:25:36.727Z,3.58
2023-04-24T13:26:38.876Z,2.00
2023-04-24T13:27:40.714Z,5.03
2023-04-24T13:28:42.679Z,2.46
2023-04-24T13:29:44.939Z,2.49
2023-04-24T13:30:47.033Z,2.51
2023-04-24T13:31:51.273Z,2.69
2023-04-24T13:32:53.535Z,2.55
2023-04-24T13:33:55.590Z,3.01
2023-04-24T13:34:57.439Z,3.32
2023-04-24T13:35:59.452Z,3.58
2023-04-24T13:37:02.098Z,2.65
2023-04-24T13:38:04.240Z,2.66
2023-04-24T13:39:06.536Z,2.67
2023-04-24T13:40:10.331Z,2.78
2023-04-24T13:41:12.248Z,6.06
2023-04-24T13:42:14.643Z,3.75
2023-04-24T13:43:17.114Z,2.96
2023-04-24T13:44:20.669Z,2.75
2023-04-24T13:45:25.639Z,3.34
2023-04-24T13:46:26.693Z,2.98
2023-04-24T13:47:28.676Z,2.70
2023-04-24T13:48:30.802Z,2.11
2023-04-24T13:49:32.689Z,6.32
2023-04-24T13:50:34.878Z,3.47
2023-04-24T13:51:36.755Z,2.66
2023-04-24T13:52:38.638Z,5.37
2023-04-24T13:53:40.581Z,2.81
2023-04-24T13:54:42.774Z,2.29
2023-04-24T13:55:44.750Z,3.23